sensor_id;sensor_type;location;lat;lon;timestamp;temperature;humidity
13245;DHT22;6689;53.400;12.486;2022-08-19T00:01:27;24.50;99.90
13245;DHT22;6689;53.400;12.486;2022-08-19T00:03:55;24.50;99.90
13245;DHT22;6689;53.400;12.486;2022-08-19T00:06:24;24.50;99.90
13245;DHT22;6689;53.400;12.486;2022-08-19T00:08:51;24.50;99.90
13245;DHT22;6689;53.400;12.486;2022-08-19T00:11:21;24.50;99.90
13245;DHT22;6689;53.400;12.486;2022-08-19T00:13:48;24.50;99.90
13245;DHT22;6689;53.400;12.486;2022-08-19T00:16:17;24.50;99.90
13245;DHT22;6689;53.400;12.486;2022-08-19T00:18:46;24.40;99.90
13245;DHT22;6689;53.400;12.486;2022-08-19T00:21:13;24.40;99.90
13245;DHT22;6689;53.400;12.486;2022-08-19T00:23:42;24.30;99.90
13245;DHT22;6689;53.400;12.486;2022-08-19T00:26:10;24.30;99.90
13245;DHT22;6689;53.400;12.486;2022-08-19T00:28:39;24.30;99.90
13245;DHT22;6689;53.400;12.486;2022-08-19T00:31:08;24.30;99.90
13245;DHT22;6689;53.400;12.486;2022-08-19T00:33:37;24.30;99.90
13245;DHT22;6689;53.400;12.486;2022-08-19T00:36:06;24.30;99.90
13245;DHT22;6689;53.400;12.486;2022-08-19T00:38:34;24.30;99.90
13245;DHT22;6689;53.400;12.486;2022-08-19T00:41:03;24.30;99.90
13245;DHT22;6689;53.400;12.486;2022-08-19T00:43:32;24.20;99.90
13245;DHT22;6689;53.400;12.486;2022-08-19T00:46:02;24.30;99.90
13245;DHT22;6689;53.400;12.486;2022-08-19T00:48:31;24.20;99.90
13245;DHT22;6689;53.400;12.486;2022-08-19T00:50:59;24.20;99.90
13245;DHT22;6689;53.400;12.486;2022-08-19T00:53:29;24.10;99.90
13245;DHT22;6689;53.400;12.486;2022-08-19T00:55:59;24.10;99.90
13245;DHT22;6689;53.400;12.486;2022-08-19T00:58:34;23.90;99.90
13245;DHT22;6689;53.400;12.486;2022-08-19T01:01:04;24.00;99.90
13245;DHT22;6689;53.400;12.486;2022-08-19T01:03:33;24.00;99.90
13245;DHT22;6689;53.400;12.486;2022-08-19T01:06:00;24.00;99.90
13245;DHT22;6689;53.400;12.486;2022-08-19T01:08:28;24.00;99.90
13245;DHT22;6689;53.400;12.486;2022-08-19T01:10:58;24.00;99.90
13245;DHT22;6689;53.400;12.486;2022-08-19T01:13:27;23.90;99.90
13245;DHT22;6689;53.400;12.486;2022-08-19T01:15:58;23.90;99.90
13245;DHT22;6689;53.400;12.486;2022-08-19T01:18:29;23.90;99.90
13245;DHT22;6689;53.400;12.486;2022-08-19T01:21:01;23.90;99.90
13245;DHT22;6689;53.400;12.486;2022-08-19T01:23:30;23.90;99.90
13245;DHT22;6689;53.400;12.486;2022-08-19T01:26:11;23.90;99.90
13245;DHT22;6689;53.400;12.486;2022-08-19T01:28:39;23.90;99.90
13245;DHT22;6689;53.400;12.486;2022-08-19T01:31:09;23.90;99.90
13245;DHT22;6689;53.400;12.486;2022-08-19T01:33:38;23.90;99.90
13245;DHT22;6689;53.400;12.486;2022-08-19T01:36:08;23.80;99.90
13245;DHT22;6689;53.400;12.486;2022-08-19T01:38:40;23.80;99.90
13245;DHT22;6689;53.400;12.486;2022-08-19T01:41:08;23.80;99.90
13245;DHT22;6689;53.400;12.486;2022-08-19T01:43:36;23.80;99.90
13245;DHT22;6689;53.400;12.486;2022-08-19T01:46:04;23.80;99.90
13245;DHT22;6689;53.400;12.486;2022-08-19T01:48:34;23.80;99.90
13245;DHT22;6689;53.400;12.486;2022-08-19T01:51:03;23.80;99.90
13245;DHT22;6689;53.400;12.486;2022-08-19T01:53:30;23.80;99.90
13245;DHT22;6689;53.400;12.486;2022-08-19T01:55:59;23.80;99.90
13245;DHT22;6689;53.400;12.486;2022-08-19T01:58:30;23.80;99.90
13245;DHT22;6689;53.400;12.486;2022-08-19T02:00:59;23.80;99.90
13245;DHT22;6689;53.400;12.486;2022-08-19T02:03:25;23.80;99.90
13245;DHT22;6689;53.400;12.486;2022-08-19T02:05:55;23.70;99.90
13245;DHT22;6689;53.400;12.486;2022-08-19T02:08:23;23.80;99.90
13245;DHT22;6689;53.400;12.486;2022-08-19T02:10:50;23.70;99.90
13245;DHT22;6689;53.400;12.486;2022-08-19T02:13:21;23.70;99.90
13245;DHT22;6689;53.400;12.486;2022-08-19T02:15:50;23.60;99.90
13245;DHT22;6689;53.400;12.486;2022-08-19T02:18:17;23.60;99.90
13245;DHT22;6689;53.400;12.486;2022-08-19T02:20:45;23.70;99.90
13245;DHT22;6689;53.400;12.486;2022-08-19T02:23:18;23.70;99.90
13245;DHT22;6689;53.400;12.486;2022-08-19T02:25:47;23.70;99.90
13245;DHT22;6689;53.400;12.486;2022-08-19T02:28:14;23.70;99.90
13245;DHT22;6689;53.400;12.486;2022-08-19T02:30:43;23.70;99.90
13245;DHT22;6689;53.400;12.486;2022-08-19T02:33:10;23.70;99.90
13245;DHT22;6689;53.400;12.486;2022-08-19T02:35:41;23.60;99.90
13245;DHT22;6689;53.400;12.486;2022-08-19T02:38:10;23.60;99.90
13245;DHT22;6689;53.400;12.486;2022-08-19T02:40:54;23.50;99.90
13245;DHT22;6689;53.400;12.486;2022-08-19T02:43:23;23.50;99.90
13245;DHT22;6689;53.400;12.486;2022-08-19T02:45:53;23.50;99.90
13245;DHT22;6689;53.400;12.486;2022-08-19T02:48:23;23.50;99.90
13245;DHT22;6689;53.400;12.486;2022-08-19T02:50:51;23.50;99.90
13245;DHT22;6689;53.400;12.486;2022-08-19T02:53:22;23.40;99.90
13245;DHT22;6689;53.400;12.486;2022-08-19T02:55:50;23.40;99.90
13245;DHT22;6689;53.400;12.486;2022-08-19T02:58:18;23.40;99.90
13245;DHT22;6689;53.400;12.486;2022-08-19T03:00:51;23.50;99.90
13245;DHT22;6689;53.400;12.486;2022-08-19T03:03:19;23.50;99.90
13245;DHT22;6689;53.400;12.486;2022-08-19T03:05:46;23.50;99.90
13245;DHT22;6689;53.400;12.486;2022-08-19T03:08:15;23.50;99.90
13245;DHT22;6689;53.400;12.486;2022-08-19T03:10:45;23.50;99.90
13245;DHT22;6689;53.400;12.486;2022-08-19T03:13:14;23.50;99.90
13245;DHT22;6689;53.400;12.486;2022-08-19T03:15:47;23.50;99.90
13245;DHT22;6689;53.400;12.486;2022-08-19T03:18:17;23.40;99.90
13245;DHT22;6689;53.400;12.486;2022-08-19T03:20:46;23.40;99.90
13245;DHT22;6689;53.400;12.486;2022-08-19T03:23:16;23.30;99.90
13245;DHT22;6689;53.400;12.486;2022-08-19T03:25:46;23.30;99.90
13245;DHT22;6689;53.400;12.486;2022-08-19T03:28:16;23.30;99.90
13245;DHT22;6689;53.400;12.486;2022-08-19T03:30:55;23.30;99.90
13245;DHT22;6689;53.400;12.486;2022-08-19T03:33:26;23.30;99.90
13245;DHT22;6689;53.400;12.486;2022-08-19T03:36:05;23.30;99.90
13245;DHT22;6689;53.400;12.486;2022-08-19T03:38:34;23.30;99.90
13245;DHT22;6689;53.400;12.486;2022-08-19T03:41:06;23.30;99.90
13245;DHT22;6689;53.400;12.486;2022-08-19T03:43:35;23.30;99.90
13245;DHT22;6689;53.400;12.486;2022-08-19T03:46:06;23.30;99.90
13245;DHT22;6689;53.400;12.486;2022-08-19T03:48:38;23.40;99.90
13245;DHT22;6689;53.400;12.486;2022-08-19T03:51:06;23.30;99.90
13245;DHT22;6689;53.400;12.486;2022-08-19T03:53:34;23.30;99.90
13245;DHT22;6689;53.400;12.486;2022-08-19T03:56:01;23.30;99.90
13245;DHT22;6689;53.400;12.486;2022-08-19T03:58:30;23.30;99.90
13245;DHT22;6689;53.400;12.486;2022-08-19T04:00:57;23.30;99.90
13245;DHT22;6689;53.400;12.486;2022-08-19T04:03:26;23.30;99.90
13245;DHT22;6689;53.400;12.486;2022-08-19T04:05:56;23.20;99.90
13245;DHT22;6689;53.400;12.486;2022-08-19T04:08:24;23.20;99.90
13245;DHT22;6689;53.400;12.486;2022-08-19T04:10:51;23.20;99.90
13245;DHT22;6689;53.400;12.486;2022-08-19T04:13:19;23.20;99.90
13245;DHT22;6689;53.400;12.486;2022-08-19T04:15:46;23.20;99.90
13245;DHT22;6689;53.400;12.486;2022-08-19T04:18:14;23.20;99.90
13245;DHT22;6689;53.400;12.486;2022-08-19T04:20:44;23.20;99.90
13245;DHT22;6689;53.400;12.486;2022-08-19T04:23:14;23.20;99.90
13245;DHT22;6689;53.400;12.486;2022-08-19T04:25:44;23.20;99.90
13245;DHT22;6689;53.400;12.486;2022-08-19T04:28:12;23.20;99.90
13245;DHT22;6689;53.400;12.486;2022-08-19T04:30:41;23.20;99.90
13245;DHT22;6689;53.400;12.486;2022-08-19T04:33:10;23.20;99.90
13245;DHT22;6689;53.400;12.486;2022-08-19T04:35:40;23.20;99.90
13245;DHT22;6689;53.400;12.486;2022-08-19T04:38:07;23.20;99.90
13245;DHT22;6689;53.400;12.486;2022-08-19T04:40:41;23.20;99.90
13245;DHT22;6689;53.400;12.486;2022-08-19T04:43:26;23.20;99.90
13245;DHT22;6689;53.400;12.486;2022-08-19T04:45:55;23.20;99.90
13245;DHT22;6689;53.400;12.486;2022-08-19T04:48:23;23.10;99.90
13245;DHT22;6689;53.400;12.486;2022-08-19T04:50:52;23.10;99.90
13245;DHT22;6689;53.400;12.486;2022-08-19T04:53:23;23.10;99.90
13245;DHT22;6689;53.400;12.486;2022-08-19T04:55:57;23.10;99.90
13245;DHT22;6689;53.400;12.486;2022-08-19T04:58:27;23.00;99.90
13245;DHT22;6689;53.400;12.486;2022-08-19T05:00:55;23.00;99.90
13245;DHT22;6689;53.400;12.486;2022-08-19T05:03:25;23.00;99.90
13245;DHT22;6689;53.400;12.486;2022-08-19T05:05:52;23.00;99.90
13245;DHT22;6689;53.400;12.486;2022-08-19T05:08:21;22.90;99.90
13245;DHT22;6689;53.400;12.486;2022-08-19T05:10:50;22.90;99.90
13245;DHT22;6689;53.400;12.486;2022-08-19T05:13:19;22.90;99.90
13245;DHT22;6689;53.400;12.486;2022-08-19T05:15:54;22.70;99.90
13245;DHT22;6689;53.400;12.486;2022-08-19T05:18:22;22.70;99.90
13245;DHT22;6689;53.400;12.486;2022-08-19T05:21:07;22.70;99.90
13245;DHT22;6689;53.400;12.486;2022-08-19T05:23:52;22.60;99.90
13245;DHT22;6689;53.400;12.486;2022-08-19T05:26:20;22.50;99.90
13245;DHT22;6689;53.400;12.486;2022-08-19T05:28:50;22.50;99.90
13245;DHT22;6689;53.400;12.486;2022-08-19T05:31:20;22.50;99.90
13245;DHT22;6689;53.400;12.486;2022-08-19T05:33:50;22.40;1.00
13245;DHT22;6689;53.400;12.486;2022-08-19T05:36:17;22.50;99.90
13245;DHT22;6689;53.400;12.486;2022-08-19T05:38:49;22.40;1.00
13245;DHT22;6689;53.400;12.486;2022-08-19T05:41:21;22.40;1.00
13245;DHT22;6689;53.400;12.486;2022-08-19T05:44:12;22.40;1.00
13245;DHT22;6689;53.400;12.486;2022-08-19T05:46:43;22.50;1.00
13245;DHT22;6689;53.400;12.486;2022-08-19T05:49:13;22.50;1.00
13245;DHT22;6689;53.400;12.486;2022-08-19T05:51:42;22.50;1.00
13245;DHT22;6689;53.400;12.486;2022-08-19T05:54:17;22.50;1.00
13245;DHT22;6689;53.400;12.486;2022-08-19T05:57:00;22.50;1.00
13245;DHT22;6689;53.400;12.486;2022-08-19T05:59:37;22.60;1.00
13245;DHT22;6689;53.400;12.486;2022-08-19T06:02:14;22.60;1.00
13245;DHT22;6689;53.400;12.486;2022-08-19T06:04:57;22.60;1.00
13245;DHT22;6689;53.400;12.486;2022-08-19T06:07:32;22.60;1.00
13245;DHT22;6689;53.400;12.486;2022-08-19T06:10:01;22.70;1.00
13245;DHT22;6689;53.400;12.486;2022-08-19T06:12:29;22.80;1.00
13245;DHT22;6689;53.400;12.486;2022-08-19T06:15:08;22.80;1.00
13245;DHT22;6689;53.400;12.486;2022-08-19T06:17:36;22.90;1.00
13245;DHT22;6689;53.400;12.486;2022-08-19T06:20:06;23.00;1.00
13245;DHT22;6689;53.400;12.486;2022-08-19T06:22:46;23.00;1.00
13245;DHT22;6689;53.400;12.486;2022-08-19T06:25:27;23.00;1.00
13245;DHT22;6689;53.400;12.486;2022-08-19T06:27:56;22.80;1.00
13245;DHT22;6689;53.400;12.486;2022-08-19T06:30:36;23.00;1.00
13245;DHT22;6689;53.400;12.486;2022-08-19T06:33:17;23.00;1.00
13245;DHT22;6689;53.400;12.486;2022-08-19T06:35:58;23.00;1.00
13245;DHT22;6689;53.400;12.486;2022-08-19T06:38:25;22.90;1.00
13245;DHT22;6689;53.400;12.486;2022-08-19T06:41:01;22.90;1.00
13245;DHT22;6689;53.400;12.486;2022-08-19T06:43:32;22.90;1.00
13245;DHT22;6689;53.400;12.486;2022-08-19T06:46:18;23.00;1.00
13245;DHT22;6689;53.400;12.486;2022-08-19T06:48:59;23.00;1.00
13245;DHT22;6689;53.400;12.486;2022-08-19T06:51:27;22.80;1.00
13245;DHT22;6689;53.400;12.486;2022-08-19T06:53:55;22.90;1.00
13245;DHT22;6689;53.400;12.486;2022-08-19T06:56:25;23.00;1.00
13245;DHT22;6689;53.400;12.486;2022-08-19T06:59:08;23.00;1.00
13245;DHT22;6689;53.400;12.486;2022-08-19T07:07:43;22.90;1.00
13245;DHT22;6689;53.400;12.486;2022-08-19T07:10:17;22.80;1.00
13245;DHT22;6689;53.400;12.486;2022-08-19T07:12:52;22.90;1.00
13245;DHT22;6689;53.400;12.486;2022-08-19T07:15:33;22.90;1.00
13245;DHT22;6689;53.400;12.486;2022-08-19T07:18:03;22.90;1.00
13245;DHT22;6689;53.400;12.486;2022-08-19T07:20:44;22.90;1.00
13245;DHT22;6689;53.400;12.486;2022-08-19T07:23:13;22.80;1.00
13245;DHT22;6689;53.400;12.486;2022-08-19T07:25:44;22.90;1.00
13245;DHT22;6689;53.400;12.486;2022-08-19T07:28:12;22.80;1.00
13245;DHT22;6689;53.400;12.486;2022-08-19T07:30:44;22.80;1.00
13245;DHT22;6689;53.400;12.486;2022-08-19T07:33:14;22.90;1.00
13245;DHT22;6689;53.400;12.486;2022-08-19T07:35:43;22.90;1.00
13245;DHT22;6689;53.400;12.486;2022-08-19T07:41:26;22.90;1.00
13245;DHT22;6689;53.400;12.486;2022-08-19T07:44:03;22.90;1.00
13245;DHT22;6689;53.400;12.486;2022-08-19T07:46:34;22.80;1.00
13245;DHT22;6689;53.400;12.486;2022-08-19T07:49:03;22.80;1.00
13245;DHT22;6689;53.400;12.486;2022-08-19T07:51:33;22.80;1.00
13245;DHT22;6689;53.400;12.486;2022-08-19T07:54:07;22.80;1.00
13245;DHT22;6689;53.400;12.486;2022-08-19T07:56:47;22.80;1.00
13245;DHT22;6689;53.400;12.486;2022-08-19T07:59:20;22.80;1.00
13245;DHT22;6689;53.400;12.486;2022-08-19T08:01:49;22.80;1.00
13245;DHT22;6689;53.400;12.486;2022-08-19T08:04:18;22.90;1.00
13245;DHT22;6689;53.400;12.486;2022-08-19T08:07:03;22.90;1.00
13245;DHT22;6689;53.400;12.486;2022-08-19T08:09:47;22.90;1.00
13245;DHT22;6689;53.400;12.486;2022-08-19T08:12:30;23.00;1.00
13245;DHT22;6689;53.400;12.486;2022-08-19T08:14:59;23.00;1.00
13245;DHT22;6689;53.400;12.486;2022-08-19T08:17:29;23.10;1.00
13245;DHT22;6689;53.400;12.486;2022-08-19T08:19:57;23.10;1.00
13245;DHT22;6689;53.400;12.486;2022-08-19T08:22:43;23.00;1.00
13245;DHT22;6689;53.400;12.486;2022-08-19T08:25:28;23.00;1.00
13245;DHT22;6689;53.400;12.486;2022-08-19T08:28:08;23.00;1.00
13245;DHT22;6689;53.400;12.486;2022-08-19T08:30:49;23.00;1.00
13245;DHT22;6689;53.400;12.486;2022-08-19T08:33:19;23.00;1.00
13245;DHT22;6689;53.400;12.486;2022-08-19T08:35:48;23.00;1.00
13245;DHT22;6689;53.400;12.486;2022-08-19T08:38:18;22.90;1.00
13245;DHT22;6689;53.400;12.486;2022-08-19T08:40:50;22.90;1.00
13245;DHT22;6689;53.400;12.486;2022-08-19T08:43:26;23.00;1.00
13245;DHT22;6689;53.400;12.486;2022-08-19T08:46:01;22.90;1.00
13245;DHT22;6689;53.400;12.486;2022-08-19T08:48:48;22.90;1.00
13245;DHT22;6689;53.400;12.486;2022-08-19T08:51:34;22.80;1.00
13245;DHT22;6689;53.400;12.486;2022-08-19T08:54:06;22.80;1.00
13245;DHT22;6689;53.400;12.486;2022-08-19T08:56:34;22.80;1.00
13245;DHT22;6689;53.400;12.486;2022-08-19T08:59:06;22.80;1.00
13245;DHT22;6689;53.400;12.486;2022-08-19T09:01:36;22.80;1.00
13245;DHT22;6689;53.400;12.486;2022-08-19T09:04:05;22.80;1.00
13245;DHT22;6689;53.400;12.486;2022-08-19T09:06:38;22.80;1.00
13245;DHT22;6689;53.400;12.486;2022-08-19T09:09:14;22.80;1.00
13245;DHT22;6689;53.400;12.486;2022-08-19T09:11:50;22.80;1.00
13245;DHT22;6689;53.400;12.486;2022-08-19T09:14:44;22.80;1.00
13245;DHT22;6689;53.400;12.486;2022-08-19T09:17:14;22.70;1.00
13245;DHT22;6689;53.400;12.486;2022-08-19T09:19:52;22.80;1.00
13245;DHT22;6689;53.400;12.486;2022-08-19T09:22:20;22.80;1.00
13245;DHT22;6689;53.400;12.486;2022-08-19T09:24:48;22.70;1.00
13245;DHT22;6689;53.400;12.486;2022-08-19T09:27:19;22.70;1.00
13245;DHT22;6689;53.400;12.486;2022-08-19T09:29:58;22.80;1.00
13245;DHT22;6689;53.400;12.486;2022-08-19T09:32:30;22.80;1.00
13245;DHT22;6689;53.400;12.486;2022-08-19T09:35:08;22.90;1.00
13245;DHT22;6689;53.400;12.486;2022-08-19T09:37:49;22.90;1.00
13245;DHT22;6689;53.400;12.486;2022-08-19T09:40:20;22.90;1.00
13245;DHT22;6689;53.400;12.486;2022-08-19T09:42:50;22.80;1.00
13245;DHT22;6689;53.400;12.486;2022-08-19T09:45:28;22.90;1.00
13245;DHT22;6689;53.400;12.486;2022-08-19T09:48:09;22.90;1.00
13245;DHT22;6689;53.400;12.486;2022-08-19T09:50:39;22.90;1.00
13245;DHT22;6689;53.400;12.486;2022-08-19T09:53:20;22.90;1.00
13245;DHT22;6689;53.400;12.486;2022-08-19T09:56:03;22.90;1.00
13245;DHT22;6689;53.400;12.486;2022-08-19T09:58:31;22.90;1.00
13245;DHT22;6689;53.400;12.486;2022-08-19T10:01:06;22.90;1.00
13245;DHT22;6689;53.400;12.486;2022-08-19T10:03:36;23.00;1.00
13245;DHT22;6689;53.400;12.486;2022-08-19T10:06:06;23.00;1.00
13245;DHT22;6689;53.400;12.486;2022-08-19T10:08:36;23.00;1.00
13245;DHT22;6689;53.400;12.486;2022-08-19T10:11:05;23.10;1.00
13245;DHT22;6689;53.400;12.486;2022-08-19T10:13:34;23.10;1.00
13245;DHT22;6689;53.400;12.486;2022-08-19T10:16:07;23.10;1.00
13245;DHT22;6689;53.400;12.486;2022-08-19T10:18:35;23.20;1.00
13245;DHT22;6689;53.400;12.486;2022-08-19T10:21:11;23.30;1.00
13245;DHT22;6689;53.400;12.486;2022-08-19T10:23:41;23.30;1.00
13245;DHT22;6689;53.400;12.486;2022-08-19T10:26:11;23.30;1.00
13245;DHT22;6689;53.400;12.486;2022-08-19T10:28:39;23.30;1.00
13245;DHT22;6689;53.400;12.486;2022-08-19T10:31:27;23.40;1.00
13245;DHT22;6689;53.400;12.486;2022-08-19T10:33:56;23.30;1.00
13245;DHT22;6689;53.400;12.486;2022-08-19T10:36:28;23.20;1.00
13245;DHT22;6689;53.400;12.486;2022-08-19T10:39:09;23.20;1.00
13245;DHT22;6689;53.400;12.486;2022-08-19T10:41:40;23.10;1.00
13245;DHT22;6689;53.400;12.486;2022-08-19T10:44:11;23.00;1.00
13245;DHT22;6689;53.400;12.486;2022-08-19T10:46:50;23.00;1.00
13245;DHT22;6689;53.400;12.486;2022-08-19T10:49:19;23.00;1.00
13245;DHT22;6689;53.400;12.486;2022-08-19T10:51:50;23.00;10.60
13245;DHT22;6689;53.400;12.486;2022-08-19T10:54:34;23.10;3.20
13245;DHT22;6689;53.400;12.486;2022-08-19T10:57:19;23.10;1.00
13245;DHT22;6689;53.400;12.486;2022-08-19T10:59:55;23.10;1.00
13245;DHT22;6689;53.400;12.486;2022-08-19T11:02:41;23.10;1.00
13245;DHT22;6689;53.400;12.486;2022-08-19T11:05:09;23.20;1.00
13245;DHT22;6689;53.400;12.486;2022-08-19T11:07:45;23.20;1.00
13245;DHT22;6689;53.400;12.486;2022-08-19T11:10:16;23.20;1.00
13245;DHT22;6689;53.400;12.486;2022-08-19T11:12:45;23.10;7.00
13245;DHT22;6689;53.400;12.486;2022-08-19T11:15:21;23.20;1.00
13245;DHT22;6689;53.400;12.486;2022-08-19T11:18:05;23.00;1.00
13245;DHT22;6689;53.400;12.486;2022-08-19T11:20:36;23.00;1.00
13245;DHT22;6689;53.400;12.486;2022-08-19T11:23:06;23.00;1.00
13245;DHT22;6689;53.400;12.486;2022-08-19T11:25:34;23.10;1.00
13245;DHT22;6689;53.400;12.486;2022-08-19T11:28:04;23.10;1.00
13245;DHT22;6689;53.400;12.486;2022-08-19T11:30:37;23.00;1.00
13245;DHT22;6689;53.400;12.486;2022-08-19T11:33:20;23.00;1.00
13245;DHT22;6689;53.400;12.486;2022-08-19T11:35:57;23.00;4.40
13245;DHT22;6689;53.400;12.486;2022-08-19T11:38:25;22.90;3.50
13245;DHT22;6689;53.400;12.486;2022-08-19T11:41:07;22.90;11.70
13245;DHT22;6689;53.400;12.486;2022-08-19T11:43:35;22.90;11.10
13245;DHT22;6689;53.400;12.486;2022-08-19T11:46:05;22.80;16.30
13245;DHT22;6689;53.400;12.486;2022-08-19T11:48:36;22.80;19.80
13245;DHT22;6689;53.400;12.486;2022-08-19T11:51:07;22.80;36.60
13245;DHT22;6689;53.400;12.486;2022-08-19T11:53:35;22.80;27.10
13245;DHT22;6689;53.400;12.486;2022-08-19T11:56:07;22.90;19.90
13245;DHT22;6689;53.400;12.486;2022-08-19T11:58:38;22.90;16.50
13245;DHT22;6689;53.400;12.486;2022-08-19T12:01:08;22.90;26.90
13245;DHT22;6689;53.400;12.486;2022-08-19T12:03:42;22.90;32.10
13245;DHT22;6689;53.400;12.486;2022-08-19T12:06:15;23.00;29.40
13245;DHT22;6689;53.400;12.486;2022-08-19T12:08:44;22.90;40.10
13245;DHT22;6689;53.400;12.486;2022-08-19T12:11:25;22.90;42.20
13245;DHT22;6689;53.400;12.486;2022-08-19T12:14:09;22.90;53.50
13245;DHT22;6689;53.400;12.486;2022-08-19T12:16:37;22.90;40.00
13245;DHT22;6689;53.400;12.486;2022-08-19T12:19:30;22.80;90.70
13245;DHT22;6689;53.400;12.486;2022-08-19T12:22:11;22.90;63.10
13245;DHT22;6689;53.400;12.486;2022-08-19T12:24:41;22.90;62.10
13245;DHT22;6689;53.400;12.486;2022-08-19T12:27:18;22.90;69.00
13245;DHT22;6689;53.400;12.486;2022-08-19T12:29:45;22.90;68.80
13245;DHT22;6689;53.400;12.486;2022-08-19T12:32:16;22.90;69.40
13245;DHT22;6689;53.400;12.486;2022-08-19T12:34:55;23.00;35.90
13245;DHT22;6689;53.400;12.486;2022-08-19T12:37:30;23.00;28.80
13245;DHT22;6689;53.400;12.486;2022-08-19T12:40:02;22.90;81.90
13245;DHT22;6689;53.400;12.486;2022-08-19T12:42:30;22.80;79.80
13245;DHT22;6689;53.400;12.486;2022-08-19T12:44:57;22.90;90.70
13245;DHT22;6689;53.400;12.486;2022-08-19T12:47:38;22.90;65.40
13245;DHT22;6689;53.400;12.486;2022-08-19T12:50:16;22.80;80.40
13245;DHT22;6689;53.400;12.486;2022-08-19T12:52:57;22.90;79.90
13245;DHT22;6689;53.400;12.486;2022-08-19T12:55:38;22.90;78.20
13245;DHT22;6689;53.400;12.486;2022-08-19T12:58:06;22.90;65.80
13245;DHT22;6689;53.400;12.486;2022-08-19T13:00:47;22.90;99.90
13245;DHT22;6689;53.400;12.486;2022-08-19T13:03:27;22.80;99.90
13245;DHT22;6689;53.400;12.486;2022-08-19T13:06:10;22.80;99.90
13245;DHT22;6689;53.400;12.486;2022-08-19T13:08:37;22.80;99.90
13245;DHT22;6689;53.400;12.486;2022-08-19T13:11:10;22.80;99.90
13245;DHT22;6689;53.400;12.486;2022-08-19T13:13:52;22.90;99.90
13245;DHT22;6689;53.400;12.486;2022-08-19T13:16:21;22.80;99.90
13245;DHT22;6689;53.400;12.486;2022-08-19T13:18:54;22.80;99.90
13245;DHT22;6689;53.400;12.486;2022-08-19T13:21:27;22.90;99.90
13245;DHT22;6689;53.400;12.486;2022-08-19T13:24:02;22.80;99.90
13245;DHT22;6689;53.400;12.486;2022-08-19T13:26:31;22.90;99.90
13245;DHT22;6689;53.400;12.486;2022-08-19T13:29:12;22.90;98.50
13245;DHT22;6689;53.400;12.486;2022-08-19T13:31:57;22.90;99.90
13245;DHT22;6689;53.400;12.486;2022-08-19T13:34:41;22.70;99.90
13245;DHT22;6689;53.400;12.486;2022-08-19T13:37:17;22.80;99.90
13245;DHT22;6689;53.400;12.486;2022-08-19T13:39:58;22.80;99.90
13245;DHT22;6689;53.400;12.486;2022-08-19T13:42:32;22.80;99.90
13245;DHT22;6689;53.400;12.486;2022-08-19T13:45:08;22.80;99.90
13245;DHT22;6689;53.400;12.486;2022-08-19T13:47:37;22.80;99.90
13245;DHT22;6689;53.400;12.486;2022-08-19T13:50:09;22.70;99.90
13245;DHT22;6689;53.400;12.486;2022-08-19T13:52:56;22.70;99.90
13245;DHT22;6689;53.400;12.486;2022-08-19T13:55:38;22.70;99.90
13245;DHT22;6689;53.400;12.486;2022-08-19T13:58:19;22.70;99.90
13245;DHT22;6689;53.400;12.486;2022-08-19T14:00:47;22.60;99.90
13245;DHT22;6689;53.400;12.486;2022-08-19T14:03:22;22.50;99.90
13245;DHT22;6689;53.400;12.486;2022-08-19T14:06:03;22.60;99.90
13245;DHT22;6689;53.400;12.486;2022-08-19T14:08:43;22.60;99.90
13245;DHT22;6689;53.400;12.486;2022-08-19T14:11:23;22.60;99.90
13245;DHT22;6689;53.400;12.486;2022-08-19T14:13:55;22.50;99.90
13245;DHT22;6689;53.400;12.486;2022-08-19T14:16:27;22.50;99.90
13245;DHT22;6689;53.400;12.486;2022-08-19T14:19:02;22.60;99.90
13245;DHT22;6689;53.400;12.486;2022-08-19T14:21:43;22.60;99.90
13245;DHT22;6689;53.400;12.486;2022-08-19T14:24:27;22.60;99.90
13245;DHT22;6689;53.400;12.486;2022-08-19T14:27:01;22.60;99.90
13245;DHT22;6689;53.400;12.486;2022-08-19T14:29:33;22.60;99.90
13245;DHT22;6689;53.400;12.486;2022-08-19T14:32:03;22.50;99.90
13245;DHT22;6689;53.400;12.486;2022-08-19T14:34:38;22.50;99.90
13245;DHT22;6689;53.400;12.486;2022-08-19T14:37:11;22.50;99.90
13245;DHT22;6689;53.400;12.486;2022-08-19T14:39:48;22.60;99.90
13245;DHT22;6689;53.400;12.486;2022-08-19T14:42:17;22.50;99.90
13245;DHT22;6689;53.400;12.486;2022-08-19T14:44:51;22.60;99.90
13245;DHT22;6689;53.400;12.486;2022-08-19T14:47:32;22.50;99.90
13245;DHT22;6689;53.400;12.486;2022-08-19T14:50:13;22.60;99.90
13245;DHT22;6689;53.400;12.486;2022-08-19T14:52:59;22.50;99.90
13245;DHT22;6689;53.400;12.486;2022-08-19T14:55:43;22.60;99.90
13245;DHT22;6689;53.400;12.486;2022-08-19T14:58:12;22.60;99.90
13245;DHT22;6689;53.400;12.486;2022-08-19T15:00:40;22.60;99.90
13245;DHT22;6689;53.400;12.486;2022-08-19T15:03:08;22.60;99.90
13245;DHT22;6689;53.400;12.486;2022-08-19T15:05:38;22.70;99.90
13245;DHT22;6689;53.400;12.486;2022-08-19T15:08:13;22.70;99.90
13245;DHT22;6689;53.400;12.486;2022-08-19T15:10:58;22.80;99.90
13245;DHT22;6689;53.400;12.486;2022-08-19T15:13:28;22.80;99.90
13245;DHT22;6689;53.400;12.486;2022-08-19T15:15:57;22.80;99.90
13245;DHT22;6689;53.400;12.486;2022-08-19T15:18:28;22.90;99.90
13245;DHT22;6689;53.400;12.486;2022-08-19T15:21:01;22.90;99.90
13245;DHT22;6689;53.400;12.486;2022-08-19T15:23:29;22.90;99.90
13245;DHT22;6689;53.400;12.486;2022-08-19T15:26:22;23.00;99.90
13245;DHT22;6689;53.400;12.486;2022-08-19T15:29:04;22.90;99.90
13245;DHT22;6689;53.400;12.486;2022-08-19T15:31:33;22.90;99.90
13245;DHT22;6689;53.400;12.486;2022-08-19T15:34:08;22.90;99.90
13245;DHT22;6689;53.400;12.486;2022-08-19T15:36:39;22.90;99.90
13245;DHT22;6689;53.400;12.486;2022-08-19T15:39:08;23.00;99.90
13245;DHT22;6689;53.400;12.486;2022-08-19T15:41:48;23.00;99.90
13245;DHT22;6689;53.400;12.486;2022-08-19T15:44:18;22.90;99.90
13245;DHT22;6689;53.400;12.486;2022-08-19T15:46:49;22.90;99.90
13245;DHT22;6689;53.400;12.486;2022-08-19T15:49:18;22.90;99.90
13245;DHT22;6689;53.400;12.486;2022-08-19T15:51:59;22.90;99.90
13245;DHT22;6689;53.400;12.486;2022-08-19T15:54:34;22.90;99.90
13245;DHT22;6689;53.400;12.486;2022-08-19T15:57:08;22.90;99.90
13245;DHT22;6689;53.400;12.486;2022-08-19T15:59:53;22.90;99.90
13245;DHT22;6689;53.400;12.486;2022-08-19T16:02:37;22.80;99.90
13245;DHT22;6689;53.400;12.486;2022-08-19T16:05:25;22.80;99.90
13245;DHT22;6689;53.400;12.486;2022-08-19T16:08:09;22.80;99.90
13245;DHT22;6689;53.400;12.486;2022-08-19T16:10:40;22.80;99.90
13245;DHT22;6689;53.400;12.486;2022-08-19T16:13:10;22.80;99.90
13245;DHT22;6689;53.400;12.486;2022-08-19T16:15:40;22.90;99.90
13245;DHT22;6689;53.400;12.486;2022-08-19T16:18:21;22.90;99.90
13245;DHT22;6689;53.400;12.486;2022-08-19T16:21:04;22.90;99.90
13245;DHT22;6689;53.400;12.486;2022-08-19T16:23:36;22.80;99.90